Time;durP1;ratioP1;P1;durP2;ratioP2;P2;SDS_P1;SDS_P2;PMS_P1;PMS_P2;Temp;Humidity;BMP_temperature;BMP_pressure;BME280_temperature;BME280_humidity;BME280_pressure;Samples;Min_cycle;Max_cycle;Signal;HPM_P1;HPM_P2
2023/01/08 00:00:58;;;;;;;40.53;25.33;;;;;;;4.11;83.09;100185.69;5032450;28;20197;-72
2023/01/08 00:03:26;;;;;;;43.33;26.53;;;;;;;4.05;83.45;100180.97;5032156;28;20211;-72
2023/01/08 00:05:53;;;;;;;41.27;23.90;;;;;;;3.96;84.02;100181.81;5032381;28;20494;-72
2023/01/08 00:08:19;;;;;;;46.37;25.57;;;;;;;3.88;84.28;100178.22;5032716;28;20196;-73
2023/01/08 00:10:54;;;;;;;52.17;25.43;;;;;;;3.81;85.20;100175.31;5038032;28;20443;-73
2023/01/08 00:13:20;;;;;;;43.70;25.47;;;;;;;3.91;85.08;100181.41;5052597;28;20836;-73
2023/01/08 00:15:47;;;;;;;41.73;24.13;;;;;;;3.99;85.33;100181.53;5051789;28;20278;-73
2023/01/08 00:18:14;;;;;;;36.73;24.23;;;;;;;4.06;84.15;100176.56;5052228;28;20188;-73
2023/01/08 00:20:42;;;;;;;36.67;22.00;;;;;;;4.06;84.13;100182.66;5047538;28;20502;-73
2023/01/08 00:23:11;;;;;;;35.57;22.20;;;;;;;4.06;84.65;100182.66;5032352;28;20769;-73
2023/01/08 00:25:38;;;;;;;36.27;21.77;;;;;;;4.12;84.10;100182.09;5032428;28;20197;-73
2023/01/08 00:28:04;;;;;;;31.87;21.73;;;;;;;4.14;84.69;100177.53;5032204;28;20664;-73
2023/01/08 00:30:31;;;;;;;37.63;22.20;;;;;;;4.16;83.73;100178.22;5042623;28;20958;-73
2023/01/08 00:32:58;;;;;;;36.40;21.00;;;;;;;4.18;83.08;100176.28;5049317;28;20254;-72
2023/01/08 00:35:25;;;;;;;35.60;20.87;;;;;;;4.25;83.37;100182.63;5032461;28;20278;-72
2023/01/08 00:37:53;;;;;;;32.73;19.47;;;;;;;4.28;83.05;100182.38;5032102;28;20726;-72
2023/01/08 00:40:19;;;;;;;29.63;19.47;;;;;;;4.25;82.94;100181.81;5032970;28;20251;-72
2023/01/08 00:42:46;;;;;;;31.33;19.53;;;;;;;4.17;83.57;100179.88;5032365;28;20193;-72
2023/01/08 00:45:13;;;;;;;30.50;19.63;;;;;;;4.19;83.78;100183.19;5038363;28;20675;-74
2023/01/08 00:47:39;;;;;;;27.33;18.00;;;;;;;4.25;83.09;100181.81;5052247;28;20249;-72
2023/01/08 00:50:07;;;;;;;30.13;18.07;;;;;;;4.23;82.36;100174.06;5052142;28;20254;-73
2023/01/08 00:52:33;;;;;;;31.27;19.70;;;;;;;4.28;82.16;100190.25;5051026;28;20663;-73
2023/01/08 00:55:01;;;;;;;26.50;18.47;;;;;;;4.25;83.04;100187.88;5051719;28;20907;-73
2023/01/08 00:57:32;;;;;;;29.83;18.80;;;;;;;4.18;82.05;100181.56;5050448;28;20200;-73
2023/01/08 00:59:59;;;;;;;31.47;19.73;;;;;;;4.17;83.59;100187.75;5033764;28;20631;-73
2023/01/08 01:02:26;;;;;;;29.77;19.73;;;;;;;4.06;83.49;100184.44;5036119;28;20189;-72
2023/01/08 01:04:53;;;;;;;29.00;19.40;;;;;;;4.12;83.48;100181.25;5036341;28;20240;-72
2023/01/08 01:07:20;;;;;;;31.43;20.60;;;;;;;4.16;82.53;100183.47;5035763;28;20245;-72
2023/01/08 01:09:46;;;;;;;29.73;20.43;;;;;;;4.19;83.02;100188.47;5045796;28;20443;-72
2023/01/08 01:12:14;;;;;;;32.83;20.07;;;;;;;4.19;82.35;100180.56;5056083;28;20192;-72
2023/01/08 01:14:41;;;;;;;33.40;19.70;;;;;;;4.14;83.02;100182.78;5055406;28;20224;-72
2023/01/08 01:17:08;;;;;;;33.30;20.57;;;;;;;4.16;83.57;100178.22;5054496;28;20196;-72
2023/01/08 01:19:34;;;;;;;30.73;18.70;;;;;;;4.14;82.68;100172.28;5055527;28;20655;-72
2023/01/08 01:22:01;;;;;;;30.73;19.83;;;;;;;4.18;82.39;100173.66;5055620;28;20434;-73
2023/01/08 01:24:28;;;;;;;32.87;21.07;;;;;;;4.23;82.61;100167.97;5056147;28;20192;-72
2023/01/08 01:26:56;;;;;;;29.90;19.63;;;;;;;4.20;82.37;100163.81;5055635;28;20193;-75
2023/01/08 01:29:25;;;;;;;31.40;19.00;;;;;;;4.12;81.57;100162.84;5053810;28;20192;-72
2023/01/08 01:31:51;;;;;;;29.70;19.33;;;;;;;4.06;82.77;100164.25;5053356;28;20454;-72
2023/01/08 01:34:18;;;;;;;30.23;18.83;;;;;;;4.09;81.87;100150.81;5056126;28;20528;-72
2023/01/08 01:36:45;;;;;;;26.43;18.80;;;;;;;4.15;81.51;100160.78;5055182;28;20197;-73
2023/01/08 01:39:11;;;;;;;26.90;17.67;;;;;;;4.11;81.44;100151.53;5054830;28;20446;-74
2023/01/08 01:41:40;;;;;;;28.97;18.53;;;;;;;4.14;81.86;100164.41;5035473;28;20514;-74
2023/01/08 01:44:38;;;;;;;31.03;19.43;;;;;;;4.13;81.60;100146.94;5035199;28;20884;-74
2023/01/08 01:47:12;;;;;;;30.07;19.60;;;;;;;4.11;81.83;100156.78;5035835;28;20189;-74
2023/01/08 01:49:41;;;;;;;25.03;18.73;;;;;;;4.05;81.61;100149.44;5035146;28;20501;-74
2023/01/08 01:52:09;;;;;;;25.93;19.03;;;;;;;4.08;81.69;100159.69;5047000;28;20561;-74
2023/01/08 01:54:36;;;;;;;30.07;19.83;;;;;;;4.05;82.02;100144.19;5054849;28;20906;-73
2023/01/08 01:57:04;;;;;;;25.33;19.20;;;;;;;4.06;82.08;100143.22;5055545;28;20192;-73
2023/01/08 01:59:31;;;;;;;30.10;19.93;;;;;;;4.04;81.86;100147.78;5038614;28;20669;-73
2023/01/08 02:02:00;;;;;;;28.50;18.80;;;;;;;3.98;83.31;100144.88;5035198;28;20501;-73
2023/01/08 02:04:26;;;;;;;29.03;19.40;;;;;;;4.01;83.50;100148.03;5035391;28;20201;-72
2023/01/08 02:07:00;;;;;;;26.43;18.53;;;;;;;4.04;82.96;100141.72;5035484;28;20505;-73
2023/01/08 02:09:35;;;;;;;31.10;20.07;;;;;;;4.03;81.85;100148.75;5054080;28;20711;-77
2023/01/08 02:12:17;;;;;;;30.17;18.80;;;;;;;3.98;82.60;100143.09;5033300;28;20478;-73
2023/01/08 02:14:59;;;;;;;35.67;19.73;;;;;;;3.89;82.30;100145.72;5034981;28;20873;-73
2023/01/08 02:17:38;;;;;;;29.30;18.37;;;;;;;3.84;83.60;100143.47;5034733;28;20242;-72
2023/01/08 02:20:11;;;;;;;25.73;17.57;;;;;;;3.88;83.89;100137.00;5053052;28;20573;-71
2023/01/08 02:22:52;;;;;;;26.97;18.53;;;;;;;3.80;83.60;100143.91;5054639;28;20883;-71
2023/01/08 02:25:30;;;;;;;28.63;18.30;;;;;;;3.78;83.51;100140.56;5055544;28;20192;-71
2023/01/08 02:28:02;;;;;;;27.97;17.03;;;;;;;3.81;83.75;100145.56;5053194;28;20238;-73
2023/01/08 02:30:30;;;;;;;25.67;17.03;;;;;;;3.79;83.73;100140.44;5044708;28;20215;-72
2023/01/08 02:32:57;;;;;;;30.13;18.23;;;;;;;3.71;83.30;100127.16;5054271;28;20722;-72
2023/01/08 02:35:25;;;;;;;25.90;16.97;;;;;;;3.86;82.38;100138.09;5054961;28;20220;-73
2023/01/08 02:37:52;;;;;;;24.47;16.60;;;;;;;3.84;82.35;100130.34;5054408;28;20254;-73
2023/01/08 02:40:26;;;;;;;25.03;16.87;;;;;;;3.82;82.03;100127.03;5053497;28;20258;-73
2023/01/08 02:43:00;;;;;;;23.80;16.63;;;;;;;3.85;82.34;100137.25;5054035;28;21012;-73
2023/01/08 02:45:38;;;;;;;22.27;17.13;;;;;;;3.83;81.45;100138.34;5053889;28;20504;-73
2023/01/08 02:48:11;;;;;;;26.63;15.97;;;;;;;3.78;81.91;100132.69;5054434;28;20435;-73
2023/01/08 02:50:41;;;;;;;24.57;16.57;;;;;;;3.76;82.52;100130.19;5053997;28;20243;-72
2023/01/08 02:53:13;;;;;;;24.47;16.80;;;;;;;3.72;82.29;100136.69;5053338;28;20496;-72
2023/01/08 02:55:49;;;;;;;22.53;15.40;;;;;;;3.70;82.33;100138.66;5053779;28;20467;-72
2023/01/08 02:58:19;;;;;;;21.93;15.53;;;;;;;3.69;83.17;100137.00;5054174;28;20423;-72
2023/01/08 03:00:46;;;;;;;19.67;16.00;;;;;;;3.57;82.46;100124.94;5053661;28;20868;-72
2023/01/08 03:03:17;;;;;;;21.73;15.07;;;;;;;3.66;83.58;100133.78;5053988;28;20330;-72
2023/01/08 03:05:48;;;;;;;19.37;14.97;;;;;;;3.65;83.58;100135.59;5049032;28;20450;-72
2023/01/08 03:08:15;;;;;;;20.77;15.40;;;;;;;3.64;83.33;100133.91;5054184;28;20616;-71
2023/01/08 03:10:46;;;;;;;20.03;14.90;;;;;;;3.63;83.48;100136.72;5053534;28;20638;-72
2023/01/08 03:13:17;;;;;;;29.23;15.13;;;;;;;3.60;83.09;100132.53;5054099;28;20427;-73
2023/01/08 03:15:48;;;;;;;21.63;15.87;;;;;;;3.53;83.14;100128.81;5054045;28;20262;-73
2023/01/08 03:18:20;;;;;;;18.07;14.67;;;;;;;3.51;83.23;100135.97;5037774;28;20440;-73
2023/01/08 03:20:49;;;;;;;21.77;15.03;;;;;;;3.42;83.79;100131.56;5034347;28;20490;-72
2023/01/08 03:23:17;;;;;;;19.17;15.00;;;;;;;3.32;84.65;100132.50;5050730;28;20486;-73
2023/01/08 03:25:47;;;;;;;20.10;14.43;;;;;;;3.38;84.14;100138.03;5051972;28;20481;-72
2023/01/08 03:28:20;;;;;;;19.20;15.67;;;;;;;3.41;83.38;100127.28;5053536;28;20242;-73
2023/01/08 03:30:50;;;;;;;20.57;14.40;;;;;;;3.39;83.77;100128.38;5040395;28;20462;-72
2023/01/08 03:33:19;;;;;;;23.83;15.40;;;;;;;3.39;84.30;100131.81;5033739;28;20435;-73
2023/01/08 03:35:50;;;;;;;21.57;13.93;;;;;;;3.42;84.03;100128.91;5040197;28;20502;-73
2023/01/08 03:38:22;;;;;;;23.33;16.20;;;;;;;3.41;83.14;100126.44;5052931;28;20250;-72
2023/01/08 03:40:54;;;;;;;20.27;14.67;;;;;;;3.44;82.94;100132.22;5052974;28;20492;-73
2023/01/08 03:43:21;;;;;;;18.93;13.97;;;;;;;3.42;83.21;100128.09;5050270;28;20440;-73
2023/01/08 03:45:51;;;;;;;21.53;14.63;;;;;;;3.45;83.74;100128.66;5053141;28;20253;-73
2023/01/08 03:48:20;;;;;;;26.60;14.43;;;;;;;3.42;83.35;100131.56;5048130;28;20439;-73
2023/01/08 03:50:48;;;;;;;22.87;14.87;;;;;;;3.38;82.42;100127.53;5052736;28;20188;-73
2023/01/08 03:53:15;;;;;;;26.97;14.77;;;;;;;3.33;81.69;100124.50;5041495;28;20546;-73
2023/01/08 03:55:41;;;;;;;24.93;15.53;;;;;;;3.30;82.27;100119.50;5047077;28;20270;-73
2023/01/08 03:58:08;;;;;;;23.40;15.53;;;;;;;3.21;82.98;100129.97;5052807;28;20461;-73
2023/01/08 04:00:35;;;;;;;22.20;14.67;;;;;;;3.22;83.03;100127.22;5052544;28;21004;-73
2023/01/08 04:03:03;;;;;;;23.03;15.37;;;;;;;3.24;83.59;100122.69;5052905;28;20442;-73
2023/01/08 04:05:29;;;;;;;20.40;14.80;;;;;;;3.22;84.00;100132.47;5051759;28;20450;-73
2023/01/08 04:07:57;;;;;;;20.67;15.40;;;;;;;3.22;83.75;100132.47;5053355;28;20496;-72
2023/01/08 04:10:24;;;;;;;21.03;15.23;;;;;;;3.06;83.62;100116.38;5052729;28;20447;-72
2023/01/08 04:12:51;;;;;;;23.73;14.40;;;;;;;3.20;83.83;100134.41;5052511;28;20656;-72
2023/01/08 04:15:18;;;;;;;21.00;13.70;;;;;;;3.22;84.15;100132.47;5051747;28;20471;-73
2023/01/08 04:17:45;;;;;;;17.40;13.73;;;;;;;3.20;84.46;100141.44;5039669;28;20668;-73
2023/01/08 04:20:13;;;;;;;19.40;13.93;;;;;;;3.15;84.89;100141.81;5032941;28;20507;-73
2023/01/08 04:22:39;;;;;;;20.20;14.07;;;;;;;3.08;84.06;100135.47;5032540;28;20475;-73
2023/01/08 04:25:07;;;;;;;22.90;15.97;;;;;;;3.03;84.84;100142.88;5032633;28;20440;-73
2023/01/08 04:27:33;;;;;;;26.50;16.03;;;;;;;3.07;83.77;100141.66;5032750;28;20436;-73
2023/01/08 04:30:00;;;;;;;24.83;16.67;;;;;;;3.03;83.80;100142.88;5032635;28;20448;-73
2023/01/08 04:32:27;;;;;;;22.30;15.37;;;;;;;3.07;84.12;100146.09;5050859;28;20451;-73
2023/01/08 04:34:53;;;;;;;28.73;16.47;;;;;;;3.05;82.97;100151.47;5051498;28;20536;-73
2023/01/08 04:37:21;;;;;;;24.83;16.43;;;;;;;3.07;82.41;100143.47;5052047;28;20442;-72
2023/01/08 04:39:48;;;;;;;24.63;17.20;;;;;;;3.03;82.60;100132.41;5052170;28;20431;-73
2023/01/08 04:42:15;;;;;;;33.50;18.37;;;;;;;3.11;82.51;100152.75;5051128;28;20200;-73
2023/01/08 04:44:41;;;;;;;32.53;20.07;;;;;;;3.10;81.93;100146.66;5051838;28;20504;-73
2023/01/08 04:47:08;;;;;;;33.40;20.37;;;;;;;3.08;83.37;100145.97;5051172;28;20443;-74
2023/01/08 04:49:35;;;;;;;28.90;17.93;;;;;;;3.08;81.64;100160.88;5052028;28;20809;-73
2023/01/08 04:52:01;;;;;;;28.60;17.53;;;;;;;2.99;83.10;100152.00;5051904;28;20814;-75
2023/01/08 04:54:29;;;;;;;27.20;16.83;;;;;;;2.99;83.18;100156.44;5032214;28;20448;-73
2023/01/08 04:56:56;;;;;;;26.33;19.13;;;;;;;3.05;82.67;100159.34;5031877;28;20943;-73
2023/01/08 04:59:23;;;;;;;31.87;19.00;;;;;;;3.08;82.38;100166.97;5031756;28;20444;-74
2023/01/08 05:01:49;;;;;;;28.20;17.30;;;;;;;3.07;81.97;100170.53;5032020;28;20884;-73
2023/01/08 05:04:16;;;;;;;26.03;16.27;;;;;;;3.08;82.67;100164.34;5031910;28;20909;-75
2023/01/08 05:06:43;;;;;;;30.70;17.17;;;;;;;3.07;82.86;100165.28;5032120;28;20501;-73
2023/01/08 05:09:10;;;;;;;21.63;16.47;;;;;;;3.09;82.66;100163.38;5042658;28;20451;-73
2023/01/08 05:11:38;;;;;;;23.27;15.77;;;;;;;3.08;83.71;100172.22;5051979;28;20477;-73
2023/01/08 05:14:05;;;;;;;20.33;14.73;;;;;;;3.03;83.47;100169.13;5051802;28;20504;-73
2023/01/08 05:16:32;;;;;;;24.93;15.73;;;;;;;3.05;83.68;100167.22;5051051;28;21074;-74
2023/01/08 05:18:58;;;;;;;19.57;14.30;;;;;;;3.03;83.03;100163.88;5032443;28;20450;-74
2023/01/08 05:21:25;;;;;;;19.37;14.37;;;;;;;2.95;83.74;100176.84;5032015;28;20443;-72
2023/01/08 05:23:52;;;;;;;19.27;15.03;;;;;;;2.91;84.05;100180.69;5032073;28;20999;-77
2023/01/08 05:26:19;;;;;;;23.87;14.27;;;;;;;2.96;83.87;100172.41;5049598;28;20508;-70
2023/01/08 05:28:47;;;;;;;24.77;14.53;;;;;;;2.96;83.62;100186.38;5051766;28;20450;-71
2023/01/08 05:31:14;;;;;;;20.47;15.10;;;;;;;2.93;84.07;100183.16;5035023;28;20444;-71
2023/01/08 05:33:41;;;;;;;25.13;14.80;;;;;;;2.86;83.61;100167.13;5031474;28;20955;-71
2023/01/08 05:36:09;;;;;;;19.23;15.30;;;;;;;2.93;83.93;100178.75;5035252;28;20533;-71
2023/01/08 05:38:36;;;;;;;21.60;14.30;;;;;;;2.96;84.66;100180.28;5046735;28;20959;-71
2023/01/08 05:41:03;;;;;;;22.27;13.80;;;;;;;2.92;84.27;100178.91;5051420;28;20434;-72
2023/01/08 05:43:30;;;;;;;17.13;12.87;;;;;;;2.81;84.23;100179.81;5051547;28;20500;-71
2023/01/08 05:45:59;;;;;;;20.50;13.07;;;;;;;2.66;84.35;100173.22;5051340;28;20446;-71
2023/01/08 05:48:27;;;;;;;16.33;12.90;;;;;;;2.53;84.35;100180.47;5041783;28;20447;-71
2023/01/08 05:50:53;;;;;;;21.33;14.33;;;;;;;2.35;85.45;100187.25;5035064;28;20478;-71
2023/01/08 05:53:20;;;;;;;18.10;13.40;;;;;;;2.14;86.31;100178.56;5050054;28;20446;-72
2023/01/08 05:55:47;;;;;;;20.87;13.50;;;;;;;2.13;87.50;100176.91;5054767;28;20560;-71
2023/01/08 05:58:17;;;;;;;22.60;14.30;;;;;;;2.20;87.63;100185.09;5055610;28;20442;-71
2023/01/08 06:00:45;;;;;;;22.87;15.17;;;;;;;2.27;87.12;100178.34;5053528;28;20530;-72
2023/01/08 06:03:13;;;;;;;17.73;15.03;;;;;;;2.32;86.33;100184.88;5054356;28;20447;-72
2023/01/08 06:05:39;;;;;;;21.30;14.83;;;;;;;2.35;86.14;100195.13;5054560;28;20822;-73
2023/01/08 06:08:06;;;;;;;21.93;15.93;;;;;;;2.42;86.40;100188.41;5055186;28;20443;-73
2023/01/08 06:10:33;;;;;;;26.80;16.57;;;;;;;2.44;86.52;100190.88;5054544;28;20443;-72
2023/01/08 06:12:59;;;;;;;23.40;16.47;;;;;;;2.48;84.91;100192.28;5039055;28;20970;-72
2023/01/08 06:15:26;;;;;;;126.87;25.87;;;;;;;2.58;85.55;100183.53;5034823;28;20830;-71
2023/01/08 06:17:53;;;;;;;41.93;19.17;;;;;;;2.73;85.53;100190.13;5034857;28;20444;-72
2023/01/08 06:20:21;;;;;;;24.13;17.37;;;;;;;2.77;84.94;100188.91;5034990;28;20444;-74
2023/01/08 06:22:47;;;;;;;157.17;27.73;;;;;;;2.84;84.43;100195.28;5040178;28;20552;-72
2023/01/08 06:25:14;;;;;;;40.33;19.83;;;;;;;2.84;83.35;100190.03;5054062;28;20512;-73
2023/01/08 06:27:41;;;;;;;40.70;18.67;;;;;;;2.94;84.57;100195.34;5054185;28;20885;-72
2023/01/08 06:30:09;;;;;;;33.37;19.43;;;;;;;3.00;85.28;100200.91;5047507;28;20435;-71
2023/01/08 06:32:38;;;;;;;31.93;17.77;;;;;;;3.07;84.72;100190.72;5040700;28;20439;-73
2023/01/08 06:35:05;;;;;;;24.00;19.37;;;;;;;3.11;84.25;100203.41;5054231;28;20480;-73
2023/01/08 06:37:33;;;;;;;29.20;20.17;;;;;;;3.37;88.51;100199.41;5053712;28;20443;-72
2023/01/08 06:40:00;;;;;;;29.20;19.83;;;;;;;3.51;84.62;100214.75;5052824;28;20443;-70
2023/01/08 06:42:27;;;;;;;23.87;18.83;;;;;;;3.69;82.69;100215.81;5047997;28;20452;-70
2023/01/08 06:44:54;;;;;;;25.37;18.57;;;;;;;3.76;81.69;100210.84;5033965;28;20866;-70
2023/01/08 06:47:20;;;;;;;31.57;19.47;;;;;;;3.93;81.24;100224.13;5034920;28;20501;-70
2023/01/08 06:49:47;;;;;;;29.50;19.43;;;;;;;4.09;81.06;100229.66;5034131;28;20436;-72
2023/01/08 06:52:14;;;;;;;31.40;19.07;;;;;;;4.42;81.54;100221.38;5045483;28;20447;-70
2023/01/08 06:54:42;;;;;;;28.27;17.83;;;;;;;4.90;79.77;100230.03;5034025;28;20201;-70
2023/01/08 06:57:08;;;;;;;24.07;17.47;;;;;;;5.38;77.50;100237.78;5033578;28;20216;-72
2023/01/08 06:59:35;;;;;;;28.17;17.27;;;;;;;5.85;75.00;100241.19;5035571;28;20232;-69
2023/01/08 07:02:02;;;;;;;22.37;16.73;;;;;;;6.31;72.69;100252.41;5047211;28;20672;-70
2023/01/08 07:04:29;;;;;;;27.30;17.63;;;;;;;6.73;70.49;100258.69;5032113;28;20201;-71
2023/01/08 07:06:55;;;;;;;24.43;17.60;;;;;;;7.00;69.90;100239.25;5031803;28;20645;-71
2023/01/08 07:09:22;;;;;;;22.90;16.93;;;;;;;7.39;67.31;100256.38;5031990;28;20594;-70
2023/01/08 07:11:50;;;;;;;30.43;18.23;;;;;;;7.69;67.62;100255.84;5032299;28;20191;-71
2023/01/08 07:14:17;;;;;;;39.67;19.23;;;;;;;8.07;64.90;100260.59;5049582;28;20578;-72
2023/01/08 07:16:43;;;;;;;32.13;20.50;;;;;;;8.22;64.17;100270.44;5052696;28;20604;-70
2023/01/08 07:19:10;;;;;;;49.17;24.93;;;;;;;8.43;62.87;100270.81;5053146;28;20250;-70
2023/01/08 07:21:37;;;;;;;34.73;22.97;;;;;;;8.66;62.67;100273.63;5053556;28;20616;-69
2023/01/08 07:24:04;;;;;;;36.60;22.00;;;;;;;8.83;60.63;100280.59;5052581;28;20224;-70
2023/01/08 07:26:31;;;;;;;33.87;19.63;;;;;;;8.78;62.78;100272.31;5052965;28;20197;-70
2023/01/08 07:28:59;;;;;;;23.53;16.73;;;;;;;8.69;61.31;100279.44;5053217;28;20635;-70
2023/01/08 07:31:26;;;;;;;26.37;16.93;;;;;;;8.62;61.77;100272.31;5053124;28;20269;-70
2023/01/08 07:33:53;;;;;;;29.10;16.30;;;;;;;8.48;62.96;100270.28;5051636;28;20270;-70
2023/01/08 07:36:21;;;;;;;21.57;14.30;;;;;;;8.76;63.11;100279.59;5052965;28;20216;-70
2023/01/08 07:38:48;;;;;;;17.40;12.43;;;;;;;8.84;60.91;100282.25;5052894;28;20196;-71
2023/01/08 07:41:16;;;;;;;18.33;12.53;;;;;;;9.07;60.16;100284.03;5051878;28;20680;-70
2023/01/08 07:43:43;;;;;;;21.13;12.53;;;;;;;9.44;60.68;100276.38;5042930;28;20622;-70
2023/01/08 07:46:11;;;;;;;18.40;12.40;;;;;;;9.72;57.77;100292.72;5032783;28;20201;-70
2023/01/08 07:48:37;;;;;;;18.90;12.13;;;;;;;9.96;57.17;100287.28;5032821;28;20201;-70
2023/01/08 07:51:06;;;;;;;17.17;12.27;;;;;;;10.25;57.92;100279.56;5032331;28;20193;-69
2023/01/08 07:53:33;;;;;;;16.53;13.37;;;;;;;10.55;54.87;100289.31;5032547;28;20251;-70
2023/01/08 07:56:01;;;;;;;22.23;12.80;;;;;;;10.81;54.35;100285.31;5032628;28;20298;-70
2023/01/08 07:58:28;;;;;;;17.13;12.83;;;;;;;10.99;53.49;100277.03;5050488;28;20243;-71
2023/01/08 08:00:54;;;;;;;17.90;13.37;;;;;;;11.23;53.01;100274.13;5052299;28;20188;-74
2023/01/08 08:03:23;;;;;;;13.73;12.27;;;;;;;11.47;53.73;100271.22;5051823;28;20251;-71
2023/01/08 08:05:50;;;;;;;18.03;12.43;;;;;;;11.69;51.71;100283.66;5052560;28;20623;-70
2023/01/08 08:08:18;;;;;;;14.43;12.77;;;;;;;11.46;51.54;100221.69;5051910;28;20203;-72
2023/01/08 08:10:45;;;;;;;17.93;13.63;;;;;;;11.80;50.83;100271.72;5052127;28;20224;-69
2023/01/08 08:13:12;;;;;;;17.20;13.50;;;;;;;11.61;53.56;100267.78;5048199;28;20197;-69
2023/01/08 08:15:40;;;;;;;19.57;14.23;;;;;;;11.84;51.78;100271.16;5032241;28;20199;-71
2023/01/08 08:18:06;;;;;;;15.77;11.67;;;;;;;12.02;51.45;100273.44;5032487;28;20201;-71
2023/01/08 08:20:35;;;;;;;23.47;11.77;;;;;;;12.18;50.46;100275.88;5032353;28;20198;-71
2023/01/08 08:23:02;;;;;;;18.30;12.00;;;;;;;12.20;51.16;100274.69;5032205;28;20227;-70
2023/01/08 08:25:29;;;;;;;15.67;12.00;;;;;;;12.30;50.82;100269.91;5032173;28;20317;-69
2023/01/08 08:27:57;;;;;;;15.03;11.27;;;;;;;12.39;50.68;100268.75;5031918;28;20206;-69
2023/01/08 08:30:24;;;;;;;15.40;10.43;;;;;;;12.58;50.22;100267.31;5041843;28;20583;-71
2023/01/08 08:32:50;;;;;;;14.70;11.63;;;;;;;12.58;49.78;100272.66;5051701;28;20210;-69
2023/01/08 08:35:17;;;;;;;14.73;11.53;;;;;;;12.82;49.11;100269.59;5050500;28;20656;-71
2023/01/08 08:37:45;;;;;;;19.37;9.73;;;;;;;13.00;48.78;100273.50;5051103;28;20297;-71
2023/01/08 08:40:12;;;;;;;11.03;9.30;;;;;;;12.98;47.98;100256.84;5052163;28;20195;-71
2023/01/08 08:42:39;;;;;;;14.47;9.53;;;;;;;12.72;49.83;100264.59;5051783;28;20196;-73
2023/01/08 08:45:07;;;;;;;13.03;10.00;;;;;;;12.62;50.03;100261.41;5051946;28;20253;-70
2023/01/08 08:47:34;;;;;;;18.73;10.40;;;;;;;12.58;49.52;100262.78;5050350;28;20584;-70
2023/01/08 08:50:01;;;;;;;15.00;10.83;;;;;;;12.55;50.02;100273.84;5051127;28;20194;-71
2023/01/08 08:52:27;;;;;;;11.17;10.00;;;;;;;12.62;50.15;100266.72;5051534;28;20277;-71
2023/01/08 08:54:55;;;;;;;12.90;8.97;;;;;;;12.82;50.14;100265.06;5050939;28;20191;-71
2023/01/08 08:57:23;;;;;;;8.60;7.77;;;;;;;13.09;48.65;100264.31;5031695;28;20217;-74
2023/01/08 08:59:50;;;;;;;10.03;8.10;;;;;;;13.42;47.48;100265.38;5031481;28;20620;-75
2023/01/08 09:02:16;;;;;;;28.00;10.20;;;;;;;13.70;47.63;100252.84;5031304;28;20196;-76
2023/01/08 09:04:43;;;;;;;8.60;7.70;;;;;;;13.91;46.49;100249.22;5031489;28;20739;-74
2023/01/08 09:07:10;;;;;;;26.57;9.70;;;;;;;14.07;45.56;100247.03;5048499;28;20627;-77
2023/01/08 09:09:36;;;;;;;18.97;10.07;;;;;;;14.00;46.11;100240.84;5052129;28;20254;-77
2023/01/08 09:12:06;;;;;;;9.80;7.70;;;;;;;13.90;45.50;100245.75;5051515;28;20258;-74
2023/01/08 09:14:33;;;;;;;7.73;7.00;;;;;;;13.68;46.36;100238.84;5051504;28;20204;-75
2023/01/08 09:16:59;;;;;;;9.00;8.13;;;;;;;13.83;46.04;100236.03;5051364;28;20252;-75
2023/01/08 09:19:26;;;;;;;18.37;8.50;;;;;;;13.96;45.81;100236.09;5032106;28;20256;-77
2023/01/08 09:21:53;;;;;;;7.97;7.27;;;;;;;14.13;45.53;100230.19;5032465;28;20672;-78
2023/01/08 09:24:20;;;;;;;17.03;8.00;;;;;;;14.30;44.52;100226.16;5054987;28;20569;-75
2023/01/08 09:26:47;;;;;;;7.37;6.93;;;;;;;14.45;44.29;100225.97;5055309;28;20192;-75
2023/01/08 09:29:15;;;;;;;8.53;7.73;;;;;;;14.43;43.98;100225.38;5053444;28;20273;-75
2023/01/08 09:31:41;;;;;;;7.33;6.70;;;;;;;14.53;43.39;100215.94;5034894;28;20556;-79
2023/01/08 09:34:08;;;;;;;8.47;6.47;;;;;;;14.46;43.40;100215.09;5035320;28;20193;-78
2023/01/08 09:36:35;;;;;;;8.00;6.13;;;;;;;14.37;42.78;100186.09;5034812;28;20217;-78
2023/01/08 09:39:01;;;;;;;6.30;5.70;;;;;;;14.44;42.78;100210.97;5047829;28;20208;-77
2023/01/08 09:41:31;;;;;;;6.40;5.80;;;;;;;14.36;42.62;100198.66;5054744;28;20258;-74
2023/01/08 09:44:00;;;;;;;6.90;5.80;;;;;;;14.15;43.15;100198.78;5054594;28;20189;-74
2023/01/08 09:46:29;;;;;;;9.93;6.27;;;;;;;14.27;42.71;100194.53;5054017;28;20660;-77
2023/01/08 09:48:59;;;;;;;6.70;6.20;;;;;;;14.24;43.20;100186.91;5041427;28;20751;-78
2023/01/08 09:51:33;;;;;;;6.77;5.73;;;;;;;14.20;43.67;100187.47;5033852;28;20182;-78
2023/01/08 09:54:01;;;;;;;24.70;6.57;;;;;;;14.24;43.85;100184.22;5034439;28;20184;-78
2023/01/08 09:56:28;;;;;;;6.77;5.80;;;;;;;14.06;43.45;100173.28;5039685;28;20220;-79
2023/01/08 09:58:58;;;;;;;7.00;6.30;;;;;;;13.99;44.49;100168.91;5053537;28;20209;-77
2023/01/08 10:01:29;;;;;;;6.70;6.27;;;;;;;13.75;45.46;100140.91;5054778;28;20197;-77
2023/01/08 10:04:06;;;;;;;9.93;6.30;;;;;;;13.90;45.65;100162.94;5053182;28;20707;-78
2023/01/08 10:06:33;;;;;;;6.73;6.10;;;;;;;13.85;46.10;100168.03;5052560;28;20200;-77
2023/01/08 10:09:00;;;;;;;6.80;6.23;;;;;;;13.93;45.50;100159.84;5054234;28;20474;-77
2023/01/08 10:11:31;;;;;;;10.83;10.03;;;;;;;14.04;44.71;100151.25;5054238;28;20192;-78
2023/01/08 10:13:58;;;;;;;6.60;6.00;;;;;;;13.91;45.30;100155.75;5054554;28;20185;-78
2023/01/08 10:16:30;;;;;;;6.67;6.00;;;;;;;13.84;44.95;100150.38;5052641;28;20250;-79
2023/01/08 10:18:58;;;;;;;6.27;5.67;;;;;;;13.86;44.51;100143.00;5042453;28;20185;-77
2023/01/08 10:21:29;;;;;;;6.63;5.43;;;;;;;13.81;44.54;100126.75;5035259;28;20193;-79
2023/01/08 10:23:56;;;;;;;9.33;5.90;;;;;;;14.01;44.76;100140.97;5034284;28;20320;-78
2023/01/08 10:26:28;;;;;;;7.40;5.83;;;;;;;14.07;44.40;100126.81;5034081;28;20266;-77
2023/01/08 10:29:13;;;;;;;7.23;6.53;;;;;;;14.15;44.14;100131.13;5033953;28;20677;-77
2023/01/08 10:31:50;;;;;;;9.00;8.10;;;;;;;14.03;44.98;100130.09;5051231;28;20184;-79
2023/01/08 10:34:31;;;;;;;6.50;6.00;;;;;;;13.98;44.49;100125.38;5053469;28;20246;-78
2023/01/08 10:36:58;;;;;;;16.33;6.97;;;;;;;14.08;44.32;100119.59;5053127;28;20266;-76
2023/01/08 10:39:29;;;;;;;5.83;5.33;;;;;;;13.89;44.30;100126.56;5054246;28;20223;-77
2023/01/08 10:42:03;;;;;;;6.57;5.70;;;;;;;13.89;44.38;100115.06;5045661;28;20260;-78
2023/01/08 10:44:31;;;;;;;16.87;6.67;;;;;;;13.85;44.61;100103.94;5038572;28;20189;-78
2023/01/08 10:47:00;;;;;;;6.10;5.40;;;;;;;13.86;44.42;100110.13;5033778;28;20552;-79
2023/01/08 10:49:32;;;;;;;17.93;5.80;;;;;;;13.81;44.75;100108.03;5034166;28;20197;-78
2023/01/08 10:52:00;;;;;;;8.50;5.13;;;;;;;13.79;44.75;100096.75;5050047;28;20718;-79
2023/01/08 10:54:35;;;;;;;33.83;6.90;;;;;;;13.76;45.51;100099.81;5052179;28;20196;-78
2023/01/08 10:57:02;;;;;;;7.83;5.60;;;;;;;13.83;45.13;100089.16;5053164;28;20235;-78
2023/01/08 10:59:29;;;;;;;6.53;5.67;;;;;;;13.71;45.36;100086.25;5052509;28;20196;-78
2023/01/08 11:01:58;;;;;;;7.37;6.20;;;;;;;13.91;44.67;100092.47;5034118;28;20189;-78
2023/01/08 11:04:31;;;;;;;19.77;6.67;;;;;;;14.00;44.80;100080.56;5033272;28;20199;-78
2023/01/08 11:07:01;;;;;;;6.43;5.83;;;;;;;14.09;44.32;100079.34;5033985;28;20194;-79
2023/01/08 11:09:31;;;;;;;6.63;6.13;;;;;;;14.14;44.13;100076.88;5033503;28;20251;-78
2023/01/08 11:11:59;;;;;;;6.50;5.90;;;;;;;14.00;44.59;100059.19;5034153;28;20284;-78
2023/01/08 11:14:29;;;;;;;7.03;5.27;;;;;;;14.08;44.78;100061.69;5037476;28;20606;-79
2023/01/08 11:16:59;;;;;;;15.00;6.53;;;;;;;14.15;44.84;100067.84;5053469;28;20224;-79
2023/01/08 11:19:28;;;;;;;7.87;6.60;;;;;;;14.30;44.04;100070.34;5053166;28;20231;-79
2023/01/08 11:21:57;;;;;;;7.10;6.10;;;;;;;14.35;44.09;100070.56;5051785;28;20614;-78